Time;durP1;ratioP1;P1;durP2;ratioP2;P2;SDS_P1;SDS_P2;PMS_P1;PMS_P2;Temp;Humidity;BMP_temperature;BMP_pressure;BME280_temperature;BME280_humidity;BME280_pressure;Samples;Min_cycle;Max_cycle;Signal;HPM_P1;HPM_P2
2022/03/21 00:00:39;;;;;;;157.18;54.83;;;1.80;99.90;;;;;;5051885;28;20513;-69
2022/03/21 00:03:11;;;;;;;171.02;58.30;;;1.80;99.90;;;;;;5035236;28;20506;-69
2022/03/21 00:05:37;;;;;;;163.02;56.00;;;1.80;99.90;;;;;;5051806;28;20045;-69
2022/03/21 00:08:03;;;;;;;168.65;57.90;;;1.70;99.90;;;;;;5051883;28;20033;-69
2022/03/21 00:10:34;;;;;;;169.27;56.65;;;1.70;99.90;;;;;;5051981;28;20163;-69
2022/03/21 00:13:00;;;;;;;169.98;58.22;;;1.70;99.90;;;;;;5051837;28;20045;-69
2022/03/21 00:15:27;;;;;;;176.48;60.67;;;1.70;99.90;;;;;;5051591;28;20044;-69
2022/03/21 00:17:53;;;;;;;176.52;58.03;;;1.70;99.90;;;;;;5035132;28;20555;-69
2022/03/21 00:20:19;;;;;;;182.73;61.80;;;1.70;99.90;;;;;;5051583;28;20129;-69
2022/03/21 00:22:45;;;;;;;190.25;60.85;;;1.70;99.90;;;;;;5035054;28;20037;-69
2022/03/21 00:25:10;;;;;;;178.77;59.13;;;1.70;99.90;;;;;;5051643;28;20340;-69
2022/03/21 00:27:45;;;;;;;166.75;57.30;;;1.70;99.90;;;;;;5051820;28;20426;-69
2022/03/21 00:30:11;;;;;;;178.68;61.05;;;1.80;99.90;;;;;;5051572;28;20037;-69
2022/03/21 00:32:38;;;;;;;171.85;58.70;;;1.70;99.90;;;;;;5034850;28;20559;-69
2022/03/21 00:35:07;;;;;;;160.80;55.72;;;1.70;99.90;;;;;;5051652;28;20052;-69
2022/03/21 00:37:35;;;;;;;167.07;57.33;;;1.70;99.90;;;;;;5051781;28;20045;-69
2022/03/21 00:40:01;;;;;;;180.60;59.97;;;1.70;99.90;;;;;;5051578;28;20128;-69
2022/03/21 00:42:26;;;;;;;187.88;62.28;;;1.60;99.90;;;;;;5051389;28;20120;-69
2022/03/21 00:44:56;;;;;;;193.55;63.55;;;1.70;99.90;;;;;;5034983;28;20399;-69
2022/03/21 00:47:22;;;;;;;184.70;60.50;;;1.70;99.90;;;;;;5051414;28;20497;-69
2022/03/21 00:49:48;;;;;;;182.32;59.42;;;1.70;99.90;;;;;;5051765;28;20076;-69
2022/03/21 00:52:14;;;;;;;197.05;63.45;;;1.70;99.90;;;;;;5034598;28;20044;-69
2022/03/21 00:54:40;;;;;;;201.82;65.03;;;1.70;99.90;;;;;;5051374;28;20037;-69
2022/03/21 00:57:05;;;;;;;181.32;61.70;;;1.70;99.90;;;;;;5034568;28;20090;-69
2022/03/21 00:59:38;;;;;;;196.32;64.15;;;1.70;99.90;;;;;;5051358;28;20385;-69
2022/03/21 01:02:03;;;;;;;;;;;1.70;99.90;;;;;;5053392;28;20041;-69
2022/03/21 01:04:29;;;;;;;197.40;62.67;;;1.70;99.90;;;;;;5054902;28;19916;-69
2022/03/21 01:06:54;;;;;;;210.55;66.05;;;1.70;99.90;;;;;;5054726;28;20393;-69
2022/03/21 01:09:20;;;;;;;192.90;63.05;;;1.70;99.90;;;;;;5054679;28;20044;-70
2022/03/21 01:11:46;;;;;;;183.13;60.75;;;1.70;99.90;;;;;;5054522;28;20045;-70
2022/03/21 01:14:12;;;;;;;166.27;56.70;;;1.70;99.90;;;;;;5054646;28;20406;-70
2022/03/21 01:16:37;;;;;;;168.60;52.28;;;1.70;99.90;;;;;;5037880;28;20052;-70
2022/03/21 01:19:05;;;;;;;322.27;56.55;;;1.70;99.90;;;;;;5054649;28;20045;-70
2022/03/21 01:21:31;;;;;;;150.20;53.38;;;1.60;99.90;;;;;;5054584;28;20045;-69
2022/03/21 01:23:56;;;;;;;152.48;51.55;;;1.50;99.90;;;;;;5038131;28;20518;-69
2022/03/21 01:26:22;;;;;;;159.40;53.72;;;1.50;99.90;;;;;;5037999;28;20041;-69
2022/03/21 01:28:47;;;;;;;143.10;48.60;;;1.50;99.90;;;;;;5054778;28;20434;-69
2022/03/21 01:31:13;;;;;;;139.52;49.90;;;1.50;99.90;;;;;;5037966;28;20399;-69
2022/03/21 01:33:40;;;;;;;155.55;53.42;;;1.40;99.90;;;;;;5054515;28;20041;-69
2022/03/21 01:36:07;;;;;;;180.02;59.70;;;1.40;99.90;;;;;;5054485;28;20075;-69
2022/03/21 01:38:33;;;;;;;196.38;63.63;;;1.40;99.90;;;;;;5054338;28;20964;-69
2022/03/21 01:40:58;;;;;;;137.95;45.38;;;1.50;99.90;;;;;;5054428;28;20041;-69
2022/03/21 01:43:24;;;;;;;122.45;45.72;;;1.50;99.90;;;;;;5054204;28;20048;-69
2022/03/21 01:45:49;;;;;;;120.93;46.35;;;1.50;99.90;;;;;;5054305;28;20032;-69
2022/03/21 01:48:15;;;;;;;97.70;42.22;;;1.50;99.90;;;;;;5054464;28;20033;-69
2022/03/21 01:50:42;;;;;;;106.43;43.10;;;1.40;99.90;;;;;;5054127;28;20036;-69
2022/03/21 01:55:56;;;;;;;106.40;43.55;;;1.30;99.90;;;;;;5054162;28;20102;-69
2022/03/21 01:58:24;;;;;;;106.80;43.53;;;1.20;99.90;;;;;;5053976;28;20055;-69
2022/03/21 02:00:51;;;;;;;110.30;44.17;;;1.20;99.90;;;;;;5037429;28;20123;-69
2022/03/21 02:03:19;;;;;;;126.63;47.75;;;1.20;99.90;;;;;;5053854;28;20045;-69
2022/03/21 02:05:47;;;;;;;130.43;47.47;;;1.10;99.90;;;;;;5054122;28;20072;-69
2022/03/21 02:08:13;;;;;;;144.30;51.30;;;1.10;99.90;;;;;;5037221;28;20120;-69
2022/03/21 02:10:42;;;;;;;137.75;49.42;;;1.10;99.90;;;;;;5054084;28;20036;-69
2022/03/21 02:13:09;;;;;;;1999.90;140.15;;;1.20;99.90;;;;;;5036361;28;20037;-69
2022/03/21 02:15:35;;;;;;;507.10;65.15;;;1.10;99.90;;;;;;5053447;28;20041;-69
2022/03/21 02:18:03;;;;;;;1122.15;81.57;;;1.00;99.90;;;;;;5053481;28;20466;-69
2022/03/21 02:24:22;;;;;;;122.38;45.28;;;0.50;99.90;;;;;;5054673;28;20135;-69
2022/03/21 02:26:50;;;;;;;137.18;50.10;;;0.40;99.90;;;;;;5053533;28;20041;-69
2022/03/21 02:29:17;;;;;;;130.05;48.65;;;0.50;99.90;;;;;;5053177;28;20128;-68
2022/03/21 02:31:43;;;;;;;159.30;47.17;;;0.50;99.90;;;;;;5053461;28;20049;-68
2022/03/21 02:34:10;;;;;;;120.38;43.55;;;0.50;99.90;;;;;;5061734;28;20132;-68
2022/03/21 02:36:37;;;;;;;118.38;43.55;;;0.50;99.90;;;;;;5073165;28;20101;-69
2022/03/21 02:39:02;;;;;;;125.45;46.88;;;0.50;99.90;;;;;;5073476;28;20484;-69
2022/03/21 02:41:28;;;;;;;131.63;48.90;;;0.50;99.90;;;;;;5073286;28;20040;-69
2022/03/21 02:43:58;;;;;;;123.68;47.20;;;0.60;99.90;;;;;;5073078;28;20046;-69
2022/03/21 02:46:25;;;;;;;130.38;47.72;;;0.60;99.90;;;;;;5072907;28;20047;-69
2022/03/21 02:48:53;;;;;;;132.77;50.28;;;0.60;99.90;;;;;;5072923;28;20064;-69
2022/03/21 02:51:23;;;;;;;152.25;52.42;;;0.60;99.90;;;;;;5072733;28;20398;-69
2022/03/21 02:53:50;;;;;;;151.93;51.95;;;0.60;99.90;;;;;;5072967;28;20456;-69
2022/03/21 02:56:16;;;;;;;155.00;51.20;;;0.60;99.90;;;;;;5072667;28;20068;-69
2022/03/21 02:58:42;;;;;;;156.10;54.05;;;0.60;99.90;;;;;;5072681;28;20040;-69
2022/03/21 03:01:21;;;;;;;164.85;53.80;;;0.70;99.90;;;;;;5072870;28;20037;-69
2022/03/21 03:03:47;;;;;;;148.52;51.08;;;0.70;99.90;;;;;;5072603;28;20036;-69
2022/03/21 03:06:13;;;;;;;145.30;51.83;;;0.70;99.90;;;;;;5056063;28;20032;-69
2022/03/21 03:08:41;;;;;;;144.45;51.05;;;0.70;99.90;;;;;;5064363;28;20047;-69
2022/03/21 03:11:07;;;;;;;140.18;49.40;;;0.70;99.90;;;;;;5052694;28;20037;-69
2022/03/21 03:13:32;;;;;;;139.38;50.38;;;0.70;99.90;;;;;;5052475;28;20106;-69
2022/03/21 03:15:58;;;;;;;146.05;51.05;;;0.70;99.90;;;;;;5052786;28;20045;-69
2022/03/21 03:18:24;;;;;;;160.88;52.80;;;0.70;99.90;;;;;;5052416;28;20135;-69
2022/03/21 03:20:57;;;;;;;153.88;52.38;;;0.70;99.90;;;;;;5052418;28;20483;-69
2022/03/21 03:23:24;;;;;;;165.85;54.50;;;0.70;99.90;;;;;;5052162;28;20163;-69
2022/03/21 03:26:00;;;;;;;163.95;55.25;;;0.80;99.90;;;;;;5051249;28;20134;-69
2022/03/21 03:28:26;;;;;;;167.57;54.95;;;0.80;99.90;;;;;;5035486;28;20044;-69
2022/03/21 03:30:52;;;;;;;162.43;53.88;;;0.80;99.90;;;;;;5052540;28;20082;-69
2022/03/21 03:33:19;;;;;;;155.02;53.88;;;0.80;99.90;;;;;;5052252;28;20456;-69
2022/03/21 03:35:44;;;;;;;166.48;54.05;;;0.80;99.90;;;;;;5052146;28;20099;-69
2022/03/21 03:38:10;;;;;;;156.25;53.30;;;0.90;99.90;;;;;;5052292;28;20052;-69
2022/03/21 03:40:36;;;;;;;147.15;51.03;;;0.80;99.90;;;;;;5052111;28;20442;-69
2022/03/21 03:43:01;;;;;;;152.18;49.92;;;0.90;99.90;;;;;;5051683;28;20110;-69
2022/03/21 03:45:27;;;;;;;143.45;49.38;;;0.80;99.90;;;;;;5052211;28;20506;-68
2022/03/21 03:47:53;;;;;;;136.13;47.80;;;0.90;99.90;;;;;;5051834;28;20048;-69
2022/03/21 03:50:20;;;;;;;137.32;47.88;;;0.80;99.90;;;;;;5051670;28;20041;-69
2022/03/21 03:52:46;;;;;;;147.02;48.38;;;0.90;99.90;;;;;;5051805;28;20430;-69
2022/03/21 03:55:17;;;;;;;145.90;49.63;;;0.90;99.90;;;;;;5051675;28;20040;-69
2022/03/21 03:57:44;;;;;;;131.25;45.75;;;0.90;99.90;;;;;;5051466;28;20106;-69
2022/03/21 04:00:11;;;;;;;123.22;43.10;;;0.90;99.90;;;;;;5034810;28;20037;-69
2022/03/21 04:05:21;;;;;;;132.38;45.75;;;0.90;99.90;;;;;;5063075;28;20045;-69
2022/03/21 04:07:48;;;;;;;130.48;45.42;;;0.90;99.90;;;;;;5037874;28;20400;-69
2022/03/21 04:10:13;;;;;;;135.90;45.15;;;0.90;99.90;;;;;;5041402;28;20067;-69
2022/03/21 04:12:39;;;;;;;127.93;44.53;;;0.80;99.90;;;;;;5035092;28;20071;-69
2022/03/21 04:15:05;;;;;;;134.40;44.80;;;0.80;99.90;;;;;;5051440;28;20507;-69
2022/03/21 04:17:31;;;;;;;123.97;44.28;;;0.80;99.90;;;;;;5051154;28;20041;-69
2022/03/21 04:19:56;;;;;;;139.60;46.63;;;0.80;99.90;;;;;;5051089;28;20064;-69
2022/03/21 04:22:22;;;;;;;144.93;45.65;;;0.90;99.90;;;;;;5050519;28;20396;-69
2022/03/21 04:24:47;;;;;;;133.43;44.78;;;0.80;99.90;;;;;;5051116;28;20033;-69
2022/03/21 04:27:16;;;;;;;142.30;47.45;;;0.80;99.90;;;;;;5050625;28;20230;-69
2022/03/21 04:29:42;;;;;;;132.70;44.95;;;0.80;99.90;;;;;;5050370;28;20033;-69
2022/03/21 04:32:07;;;;;;;132.90;45.65;;;0.80;99.90;;;;;;5037941;28;20043;-68
2022/03/21 04:34:33;;;;;;;131.38;43.63;;;0.70;99.90;;;;;;5050165;28;20075;-69
2022/03/21 04:36:58;;;;;;;137.98;43.30;;;0.70;99.90;;;;;;5049223;28;20124;-69
2022/03/21 04:39:24;;;;;;;140.52;44.55;;;0.80;99.90;;;;;;5056587;28;20505;-69
2022/03/21 04:41:49;;;;;;;141.07;45.10;;;0.70;99.90;;;;;;5054454;28;20139;-69
2022/03/21 04:44:15;;;;;;;147.45;46.38;;;0.70;99.90;;;;;;5053857;28;20049;-68
2022/03/21 04:46:41;;;;;;;129.13;44.22;;;0.70;99.90;;;;;;5055809;28;20124;-68
2022/03/21 04:49:06;;;;;;;135.85;45.05;;;0.70;99.90;;;;;;5054091;28;20118;-68
2022/03/21 04:51:32;;;;;;;149.27;45.50;;;0.70;99.90;;;;;;5054070;28;20048;-68
2022/03/21 04:53:57;;;;;;;143.82;45.35;;;0.70;99.90;;;;;;5053841;28;20048;-68
2022/03/21 04:56:23;;;;;;;139.02;46.42;;;0.70;99.90;;;;;;5044599;28;20403;-68
2022/03/21 04:58:48;;;;;;;145.45;47.85;;;0.70;99.90;;;;;;5067494;28;20052;-68
2022/03/21 05:01:14;;;;;;;134.98;44.92;;;0.80;99.90;;;;;;5069648;28;20043;-68
2022/03/21 05:03:40;;;;;;;144.43;44.20;;;0.70;99.90;;;;;;5055976;28;20041;-68
2022/03/21 05:06:05;;;;;;;130.45;43.55;;;0.70;99.90;;;;;;5053154;28;20536;-68
2022/03/21 05:08:31;;;;;;;138.45;45.00;;;0.80;99.90;;;;;;5051780;28;20032;-68
2022/03/21 05:10:56;;;;;;;135.85;44.47;;;0.80;99.90;;;;;;5070511;28;20029;-68
2022/03/21 05:13:22;;;;;;;133.05;42.90;;;0.80;99.90;;;;;;5053976;28;20049;-68
2022/03/21 05:15:48;;;;;;;125.15;40.50;;;0.80;99.90;;;;;;5053409;28;20558;-68
2022/03/21 05:18:13;;;;;;;108.72;37.85;;;0.90;99.90;;;;;;5053942;28;20083;-68
2022/03/21 05:20:39;;;;;;;121.72;39.42;;;0.80;99.90;;;;;;5054248;28;20041;-68
2022/03/21 05:31:16;;;;;;;80.38;32.10;;;0.80;99.90;;;;;;5056208;28;20411;-68
2022/03/21 05:36:26;;;;;;;271.55;35.83;;;0.80;99.90;;;;;;5047375;28;20455;-68
2022/03/21 05:38:52;;;;;;;122.28;27.30;;;0.80;99.90;;;;;;5047873;28;20064;-68
2022/03/21 05:41:18;;;;;;;74.57;29.58;;;0.80;99.90;;;;;;5054290;28;20073;-68
2022/03/21 05:43:43;;;;;;;96.10;32.28;;;0.80;99.90;;;;;;5053472;28;20087;-68
2022/03/21 05:46:09;;;;;;;74.80;26.10;;;0.70;99.90;;;;;;5053631;28;20037;-68
2022/03/21 05:48:51;;;;;;;75.20;25.75;;;0.70;99.90;;;;;;5052926;28;20052;-68
2022/03/21 05:51:27;;;;;;;70.75;29.02;;;0.60;99.90;;;;;;5053852;28;20136;-68
2022/03/21 05:57:34;;;;;;;91.63;33.35;;;0.60;99.90;;;;;;5051833;28;20027;-68
2022/03/21 06:00:28;;;;;;;103.25;35.58;;;0.60;99.90;;;;;;5054141;28;20040;-68
2022/03/21 06:02:54;;;;;;;115.25;38.42;;;0.60;99.90;;;;;;5033820;28;20288;-68
2022/03/21 06:05:21;;;;;;;106.57;36.63;;;0.60;99.90;;;;;;5052772;28;20055;-68
2022/03/21 06:07:49;;;;;;;107.88;37.10;;;0.60;99.90;;;;;;5053402;28;20037;-68
2022/03/21 06:10:15;;;;;;;106.28;37.03;;;0.60;99.90;;;;;;5052943;28;20066;-68
2022/03/21 06:12:41;;;;;;;108.93;37.47;;;0.70;99.90;;;;;;5052929;28;20052;-68
2022/03/21 06:15:08;;;;;;;103.43;36.83;;;0.70;99.90;;;;;;5052950;28;20128;-68
2022/03/21 06:17:38;;;;;;;107.40;36.58;;;0.70;99.90;;;;;;5052415;28;20134;-68
2022/03/21 06:20:09;;;;;;;103.85;35.35;;;0.70;99.90;;;;;;5051504;28;20048;-68
2022/03/21 06:22:34;;;;;;;109.78;37.85;;;0.80;99.90;;;;;;5051799;28;20041;-68
2022/03/21 06:25:02;;;;;;;105.65;37.15;;;0.80;99.90;;;;;;5052013;28;20094;-68
2022/03/21 06:27:28;;;;;;;110.38;36.97;;;0.80;99.90;;;;;;5064812;28;20047;-68
2022/03/21 06:29:54;;;;;;;111.45;36.03;;;0.90;99.90;;;;;;5047801;28;20495;-68
2022/03/21 06:32:19;;;;;;;114.38;37.72;;;0.90;99.90;;;;;;5068226;28;20507;-68
2022/03/21 06:34:45;;;;;;;106.80;35.78;;;0.90;99.90;;;;;;5072214;28;20040;-68
2022/03/21 06:37:11;;;;;;;114.95;37.35;;;0.90;99.90;;;;;;5051191;28;20045;-68
2022/03/21 06:39:36;;;;;;;100.50;35.40;;;1.00;99.90;;;;;;5052403;28;20055;-69
2022/03/21 06:42:02;;;;;;;108.00;35.45;;;1.00;99.90;;;;;;5061760;28;20041;-69
2022/03/21 06:44:27;;;;;;;102.88;35.25;;;1.10;99.90;;;;;;5052344;28;20033;-68
2022/03/21 06:46:53;;;;;;;102.43;35.95;;;1.20;99.90;;;;;;5050255;28;20133;-69
2022/03/21 06:49:22;;;;;;;103.13;34.90;;;1.30;99.90;;;;;;5051827;28;20526;-69
2022/03/21 06:51:47;;;;;;;103.25;36.22;;;1.30;99.90;;;;;;5035274;28;20048;-69
2022/03/21 06:54:13;;;;;;;104.53;34.10;;;1.30;99.90;;;;;;5051193;28;20048;-69
2022/03/21 06:56:38;;;;;;;101.55;34.50;;;1.40;99.90;;;;;;5051540;28;20037;-69
2022/03/21 06:59:04;;;;;;;110.35;35.58;;;1.50;99.90;;;;;;5014548;28;20041;-70
2022/03/21 07:01:32;;;;;;;106.65;36.60;;;1.60;99.90;;;;;;5030717;28;20076;-70
2022/03/21 07:03:58;;;;;;;103.55;35.88;;;1.70;99.90;;;;;;5030311;28;20061;-70
2022/03/21 07:06:23;;;;;;;110.75;37.45;;;1.70;99.90;;;;;;5030329;28;20057;-71
2022/03/21 07:08:51;;;;;;;121.07;38.50;;;1.90;99.90;;;;;;5029448;28;20112;-71
2022/03/21 07:11:19;;;;;;;104.70;34.42;;;1.90;99.90;;;;;;5029618;28;20703;-71
2022/03/21 07:13:45;;;;;;;103.75;34.88;;;2.00;99.90;;;;;;5044942;28;20392;-71
2022/03/21 07:16:16;;;;;;;106.07;36.97;;;2.00;99.90;;;;;;5049643;28;20052;-72
2022/03/21 07:18:44;;;;;;;108.55;34.83;;;2.10;99.90;;;;;;5046740;28;20462;-72
2022/03/21 07:21:11;;;;;;;106.75;36.47;;;2.20;99.90;;;;;;5049334;28;20033;-72
2022/03/21 07:23:37;;;;;;;108.07;38.15;;;2.30;99.90;;;;;;5066164;28;20045;-72
2022/03/21 07:26:03;;;;;;;118.43;39.08;;;2.40;99.90;;;;;;5069404;28;20078;-72
2022/03/21 07:28:28;;;;;;;113.93;37.20;;;2.50;99.90;;;;;;5049694;28;20426;-72
2022/03/21 07:30:54;;;;;;;118.28;39.90;;;2.70;99.90;;;;;;5048998;28;20372;-72
2022/03/21 07:33:20;;;;;;;129.98;40.08;;;2.80;99.90;;;;;;5042356;28;20037;-72
2022/03/21 07:35:46;;;;;;;123.05;39.72;;;3.00;99.90;;;;;;5047051;28;20041;-72
2022/03/21 07:38:12;;;;;;;119.45;40.55;;;3.10;99.90;;;;;;5048753;28;20110;-71
2022/03/21 07:40:37;;;;;;;136.20;42.13;;;3.30;99.90;;;;;;5025925;28;20124;-71
2022/03/21 07:43:03;;;;;;;128.43;40.63;;;3.40;99.90;;;;;;5030513;28;20033;-71
2022/03/21 07:48:12;;;;;;;130.02;40.97;;;3.70;99.90;;;;;;5047860;28;20215;-71
2022/03/21 07:50:38;;;;;;;142.13;43.15;;;3.90;99.90;;;;;;5051569;28;20507;-70
2022/03/21 07:53:04;;;;;;;135.77;43.35;;;4.10;99.90;;;;;;5036339;28;20043;-71
2022/03/21 07:55:33;;;;;;;139.27;41.75;;;4.30;99.90;;;;;;5048117;28;20060;-71
2022/03/21 07:57:59;;;;;;;143.88;43.50;;;4.30;99.90;;;;;;5046065;28;20037;-71
2022/03/21 08:00:30;;;;;;;148.43;43.15;;;4.60;99.90;;;;;;5046603;28;20479;-71
2022/03/21 08:02:58;;;;;;;139.57;42.00;;;4.80;99.90;;;;;;5032129;28;20041;-70
2022/03/21 08:05:24;;;;;;;134.93;41.85;;;4.90;99.90;;;;;;5048569;28;20033;-71
2022/03/21 08:07:51;;;;;;;144.88;42.63;;;5.00;99.90;;;;;;5047694;28;20415;-70
2022/03/21 08:10:18;;;;;;;134.90;40.63;;;5.20;99.90;;;;;;5046996;28;20052;-70
2022/03/21 08:12:46;;;;;;;130.85;39.72;;;5.40;99.90;;;;;;5051532;28;20049;-70
2022/03/21 08:15:13;;;;;;;128.70;40.67;;;5.50;99.90;;;;;;5050879;28;20071;-69
2022/03/21 08:17:52;;;;;;;125.03;38.25;;;5.70;99.90;;;;;;5050534;28;20502;-69
2022/03/21 08:20:19;;;;;;;134.68;40.70;;;5.80;99.90;;;;;;5047751;28;20120;-69
2022/03/21 08:22:47;;;;;;;124.93;38.08;;;6.00;99.90;;;;;;5046689;28;20041;-68
2022/03/21 08:25:15;;;;;;;115.63;36.78;;;6.10;99.90;;;;;;5045765;28;20060;-68
2022/03/21 08:27:41;;;;;;;115.68;37.55;;;6.20;99.90;;;;;;5052698;28;20037;-68
2022/03/21 08:30:07;;;;;;;110.82;36.30;;;6.30;99.90;;;;;;5067390;28;20654;-68
2022/03/21 08:32:33;;;;;;;112.47;37.08;;;6.50;99.90;;;;;;5052510;28;20043;-68
2022/03/21 08:34:58;;;;;;;121.50;37.50;;;6.70;99.90;;;;;;5069563;28;20045;-68
2022/03/21 08:37:25;;;;;;;122.95;39.72;;;6.80;99.90;;;;;;5070529;28;20086;-68
2022/03/21 08:39:51;;;;;;;107.80;36.78;;;7.00;99.90;;;;;;5063665;28;20087;-68
2022/03/21 08:42:17;;;;;;;121.47;38.40;;;7.10;99.90;;;;;;5052298;28;20045;-67
2022/03/21 08:44:43;;;;;;;110.88;36.47;;;7.30;99.90;;;;;;5035804;28;20487;-68
2022/03/21 08:47:08;;;;;;;116.88;37.17;;;7.40;99.90;;;;;;5050635;28;20136;-67
2022/03/21 08:49:37;;;;;;;108.07;35.42;;;7.50;99.90;;;;;;5053032;28;20028;-68
2022/03/21 08:52:05;;;;;;;102.70;34.55;;;7.50;99.90;;;;;;5053549;28;20045;-67
2022/03/21 08:54:30;;;;;;;102.70;35.60;;;7.60;99.90;;;;;;5052502;28;20554;-67
2022/03/21 08:56:56;;;;;;;104.90;35.15;;;7.70;99.90;;;;;;5054633;28;20083;-67
2022/03/21 08:59:22;;;;;;;96.88;33.13;;;7.90;99.90;;;;;;5054252;28;20376;-68
2022/03/21 09:01:48;;;;;;;93.90;33.67;;;8.00;99.90;;;;;;5035207;28;20045;-68
2022/03/21 09:04:14;;;;;;;94.88;33.22;;;8.00;99.90;;;;;;5034065;28;20033;-67
2022/03/21 09:06:39;;;;;;;93.50;32.13;;;8.10;99.90;;;;;;5040031;28;20257;-68
2022/03/21 09:09:05;;;;;;;91.03;31.58;;;8.30;99.90;;;;;;5037956;28;20025;-68
2022/03/21 09:11:31;;;;;;;93.78;33.50;;;8.40;99.90;;;;;;5054700;28;20037;-67
2022/03/21 09:13:56;;;;;;;88.75;31.20;;;8.50;99.90;;;;;;5038165;28;20041;-68
2022/03/21 09:16:56;;;;;;;94.47;33.50;;;8.60;99.90;;;;;;5054945;28;20037;-68
2022/03/21 09:19:23;;;;;;;91.15;33.03;;;8.70;99.90;;;;;;5054334;28;20033;-69
2022/03/21 09:21:53;;;;;;;96.20;33.88;;;8.90;99.90;;;;;;5053009;28;20052;-68
2022/03/21 09:24:19;;;;;;;95.55;33.28;;;9.00;99.90;;;;;;5037803;28;20041;-68
2022/03/21 09:26:45;;;;;;;94.18;32.75;;;9.00;99.90;;;;;;5054875;28;20506;-67
2022/03/21 09:29:11;;;;;;;89.10;33.42;;;9.10;99.90;;;;;;5054501;28;20040;-69
2022/03/21 09:31:38;;;;;;;96.22;33.90;;;9.20;99.90;;;;;;5054649;28;20055;-67
2022/03/21 09:37:44;;;;;;;101.75;34.70;;;9.40;99.90;;;;;;5055550;28;20117;-68
2022/03/21 09:40:11;;;;;;;106.68;37.00;;;9.60;99.90;;;;;;5053937;28;20069;-69
2022/03/21 09:42:39;;;;;;;100.78;33.88;;;9.60;99.90;;;;;;5053272;28;20115;-69
2022/03/21 09:45:05;;;;;;;104.90;35.67;;;9.80;99.90;;;;;;5053710;28;20045;-68
2022/03/21 09:50:15;;;;;;;101.70;36.90;;;9.90;99.90;;;;;;5053994;28;20084;-69
2022/03/21 09:52:42;;;;;;;96.63;35.53;;;10.00;99.90;;;;;;5054034;28;20069;-69
2022/03/21 09:55:08;;;;;;;111.22;37.03;;;10.20;99.90;;;;;;5053531;28;20049;-69
2022/03/21 09:57:35;;;;;;;116.05;38.40;;;10.30;99.90;;;;;;5053196;28;20075;-70
2022/03/21 10:00:02;;;;;;;123.15;41.25;;;10.40;99.90;;;;;;5053483;28;20044;-69
2022/03/21 10:02:28;;;;;;;113.18;39.25;;;10.40;99.90;;;;;;5035737;28;20077;-69
2022/03/21 10:04:54;;;;;;;106.32;37.95;;;10.60;99.90;;;;;;5052686;28;20072;-70
2022/03/21 10:07:26;;;;;;;108.20;38.05;;;10.70;99.90;;;;;;5053083;28;20095;-68
2022/03/21 10:10:21;;;;;;;;;;;10.70;99.90;;;;;;5054022;28;20488;-68
2022/03/21 10:12:47;;;;;;;104.45;38.63;;;10.70;99.90;;;;;;5049139;28;19917;-69
2022/03/21 10:15:13;;;;;;;111.45;38.17;;;10.90;99.90;;;;;;5052421;28;20055;-69
2022/03/21 10:17:39;;;;;;;104.25;38.22;;;11.00;99.90;;;;;;5053164;28;20045;-69
2022/03/21 10:20:08;;;;;;;106.30;39.15;;;11.10;99.90;;;;;;5036625;28;20073;-68
2022/03/21 10:22:43;;;;;;;108.65;38.15;;;11.10;99.90;;;;;;5053271;28;20492;-69
2022/03/21 10:25:12;;;;;;;106.80;38.55;;;11.20;99.90;;;;;;5053526;28;20072;-69
2022/03/21 10:27:43;;;;;;;109.72;37.78;;;11.20;99.90;;;;;;5053353;28;20475;-69
2022/03/21 10:30:41;;;;;;;97.68;36.40;;;11.30;99.90;;;;;;5053147;28;20044;-69
2022/03/21 10:33:07;;;;;;;101.05;36.13;;;11.50;99.90;;;;;;5052368;28;20516;-70
2022/03/21 10:35:44;;;;;;;100.35;35.78;;;11.60;99.90;;;;;;5051845;28;20483;-69
2022/03/21 10:38:10;;;;;;;95.22;35.40;;;11.60;99.90;;;;;;5052789;28;20099;-68
2022/03/21 10:40:44;;;;;;;95.30;35.85;;;11.60;99.90;;;;;;5053246;28;20492;-69
2022/03/21 10:43:14;;;;;;;101.70;36.72;;;11.60;99.90;;;;;;5033962;28;20068;-69
2022/03/21 10:45:50;;;;;;;101.60;37.53;;;11.70;99.90;;;;;;5032398;28;20041;-69
2022/03/21 10:48:20;;;;;;;94.80;36.33;;;11.70;99.90;;;;;;5033085;28;20037;-68
2022/03/21 10:50:50;;;;;;;99.10;35.47;;;11.80;99.90;;;;;;5033314;28;20041;-69
2022/03/21 10:53:38;;;;;;;106.05;37.08;;;11.80;99.90;;;;;;5039027;28;20048;-69
2022/03/21 10:56:07;;;;;;;99.30;36.97;;;11.90;99.90;;;;;;5030252;28;20458;-69
2022/03/21 10:58:41;;;;;;;103.60;37.80;;;12.00;99.90;;;;;;5037402;28;20470;-69
2022/03/21 11:01:18;;;;;;;98.88;36.50;;;12.10;99.90;;;;;;5049465;28;20041;-69
2022/03/21 11:03:49;;;;;;;94.93;36.85;;;12.20;99.90;;;;;;5032932;28;20044;-69
2022/03/21 11:06:14;;;;;;;94.15;36.38;;;12.20;99.90;;;;;;5041785;28;20040;-69
2022/03/21 11:08:40;;;;;;;101.03;37.38;;;12.30;99.90;;;;;;5052615;28;20106;-69
2022/03/21 11:11:08;;;;;;;94.15;35.33;;;12.40;99.90;;;;;;5051531;28;20500;-69
2022/03/21 11:13:35;;;;;;;96.05;34.38;;;12.50;99.90;;;;;;5050832;28;20090;-69
2022/03/21 11:16:01;;;;;;;94.95;36.42;;;12.50;99.90;;;;;;5051432;28;20128;-69
2022/03/21 11:18:27;;;;;;;92.75;35.42;;;12.50;99.90;;;;;;5052218;28;20076;-69
2022/03/21 11:20:53;;;;;;;95.18;36.15;;;12.60;99.90;;;;;;5069058;28;20045;-69
2022/03/21 11:23:19;;;;;;;91.75;34.10;;;12.70;99.90;;;;;;5050845;28;20041;-70
2022/03/21 11:26:12;;;;;;;98.97;35.90;;;12.80;99.90;;;;;;5068523;28;20379;-69
2022/03/21 11:28:48;;;;;;;;;;;12.90;99.90;;;;;;5052328;28;20052;-69
2022/03/21 11:31:51;;;;;;;87.05;34.38;;;12.90;99.90;;;;;;5051313;28;19921;-70
2022/03/21 11:34:42;;;;;;;98.18;34.92;;;13.00;99.90;;;;;;5035587;28;20399;-69
2022/03/21 11:37:24;;;;;;;97.15;36.53;;;13.00;99.90;;;;;;5068510;28;20047;-70
2022/03/21 11:40:10;;;;;;;88.55;35.95;;;13.10;99.90;;;;;;5067270;28;20052;-70
2022/03/21 11:42:35;;;;;;;91.65;34.90;;;13.20;99.90;;;;;;5050150;28;20037;-70
2022/03/21 11:45:40;;;;;;;88.40;35.45;;;13.30;99.90;;;;;;5050123;28;20135;-70
2022/03/21 11:48:17;;;;;;;95.55;35.65;;;13.40;99.90;;;;;;5012825;28;20124;-69
2022/03/21 11:50:47;;;;;;;90.85;34.40;;;13.40;99.90;;;;;;5012789;28;20076;-69
2022/03/21 11:53:15;;;;;;;89.10;34.83;;;13.50;99.90;;;;;;5021617;28;20045;-70
2022/03/21 11:55:43;;;;;;;84.43;33.70;;;13.60;99.90;;;;;;5035616;28;20041;-69
2022/03/21 11:58:27;;;;;;;84.35;33.50;;;13.60;99.90;;;;;;5032107;28;20084;-69
2022/03/21 12:01:03;;;;;;;83.25;33.47;;;13.60;99.90;;;;;;5048612;28;20088;-69
2022/03/21 12:03:28;;;;;;;90.22;33.78;;;13.60;99.90;;;;;;5048107;28;20042;-69
2022/03/21 12:05:54;;;;;;;86.13;34.25;;;13.60;99.90;;;;;;5048139;28;20037;-69
2022/03/21 12:08:30;;;;;;;87.63;34.67;;;13.70;99.90;;;;;;5048097;28;20385;-70
2022/03/21 12:10:57;;;;;;;91.18;36.95;;;13.70;99.90;;;;;;5049163;28;20091;-69
2022/03/21 12:13:23;;;;;;;86.90;35.00;;;13.70;99.90;;;;;;5064488;28;20091;-71
2022/03/21 12:15:52;;;;;;;85.15;33.75;;;13.80;99.90;;;;;;5050020;28;20055;-70
2022/03/21 12:18:19;;;;;;;86.85;34.55;;;14.00;99.90;;;;;;5050547;28;20064;-69
2022/03/21 12:20:47;;;;;;;92.43;34.00;;;14.00;99.90;;;;;;5050894;28;20110;-69
2022/03/21 12:23:19;;;;;;;87.95;34.53;;;14.00;99.90;;;;;;5049942;28;20049;-70
2022/03/21 12:25:53;;;;;;;84.90;33.13;;;14.00;99.90;;;;;;5033701;28;20033;-70
2022/03/21 12:31:21;;;;;;;86.30;33.45;;;14.20;99.90;;;;;;5050003;28;20136;-69
2022/03/21 12:33:46;;;;;;;84.45;34.33;;;14.20;99.90;;;;;;5049763;28;20044;-70
2022/03/21 12:36:30;;;;;;;83.28;33.90;;;14.20;99.90;;;;;;5049271;28;20041;-69
2022/03/21 12:38:56;;;;;;;83.82;34.22;;;14.20;99.90;;;;;;5032659;28;20511;-69
2022/03/21 12:41:22;;;;;;;78.28;35.13;;;14.20;99.00;;;;;;5047092;28;20049;-70
2022/03/21 12:43:52;;;;;;;84.30;33.97;;;14.20;99.90;;;;;;5049950;28;20060;-70
2022/03/21 12:46:20;;;;;;;79.22;32.17;;;14.20;99.90;;;;;;5049620;28;20041;-69
2022/03/21 12:48:58;;;;;;;79.18;32.53;;;14.30;99.90;;;;;;5048777;28;20041;-70
2022/03/21 12:51:33;;;;;;;86.40;34.10;;;14.30;99.90;;;;;;5049072;28;20041;-69
2022/03/21 12:54:06;;;;;;;87.55;35.25;;;14.30;99.90;;;;;;5049083;28;20091;-70
2022/03/21 12:56:32;;;;;;;81.65;32.72;;;14.40;99.90;;;;;;5046439;28;20384;-69
2022/03/21 12:59:03;;;;;;;83.88;33.20;;;14.40;99.90;;;;;;5052814;28;20045;-69
2022/03/21 13:01:30;;;;;;;78.93;31.88;;;14.40;99.90;;;;;;5052286;28;20041;-70
2022/03/21 13:10:32;;;;;;;85.68;33.60;;;14.50;99.90;;;;;;5052890;28;20037;-69
2022/03/21 13:12:31;;;;;;;70.47;29.00;;;14.70;88.40;;;;;;5053182;28;20051;-69
2022/03/21 13:15:03;;;;;;;80.93;31.75;;;14.80;95.00;;;;;;5053265;28;20431;-70